createdAt,value
2018-02-17T00:02:22.506Z,40.25
2018-02-17T00:04:49.962Z,43.15
2018-02-17T00:07:17.412Z,35.03
2018-02-17T00:09:44.856Z,37.80
2018-02-17T00:12:12.304Z,37.70
2018-02-17T00:14:40.528Z,36.88
2018-02-17T00:17:07.989Z,36.65
2018-02-17T00:19:35.432Z,35.80
2018-02-17T00:22:02.901Z,38.03
2018-02-17T00:24:30.350Z,35.78
2018-02-17T00:26:58.572Z,39.83
2018-02-17T00:29:26.069Z,42.67
2018-02-17T00:31:53.520Z,41.60
2018-02-17T00:34:21.733Z,40.90
2018-02-17T00:36:49.172Z,43.00
2018-02-17T00:39:16.629Z,37.13
2018-02-17T00:41:44.080Z,34.38
2018-02-17T00:44:11.536Z,33.47
2018-02-17T00:46:38.976Z,31.67
2018-02-17T00:49:06.437Z,32.33
2018-02-17T00:51:33.883Z,27.87
2018-02-17T00:54:02.096Z,28.05
2018-02-17T00:56:30.316Z,32.03
2018-02-17T00:58:57.789Z,35.72
2018-02-17T01:01:25.982Z,36.60
2018-02-17T01:03:54.202Z,42.67
2018-02-17T01:06:21.648Z,37.40
2018-02-17T01:08:49.095Z,41.17
2018-02-17T01:11:16.544Z,42.88
2018-02-17T01:13:44.005Z,40.03
2018-02-17T01:16:12.212Z,43.30
2018-02-17T01:18:39.672Z,46.33
2018-02-17T01:21:07.116Z,47.15
2018-02-17T01:23:34.569Z,42.65
2018-02-17T01:26:02.031Z,37.93
2018-02-17T01:28:30.272Z,40.30
2018-02-17T01:30:57.707Z,43.80
2018-02-17T01:33:25.927Z,42.63
2018-02-17T01:35:53.374Z,48.75
2018-02-17T01:38:20.821Z,40.58
2018-02-17T01:40:48.264Z,42.95
2018-02-17T01:43:15.724Z,47.10
2018-02-17T01:45:43.932Z,42.30
2018-02-17T01:48:12.188Z,47.85
2018-02-17T01:50:39.640Z,39.63
2018-02-17T01:53:23.953Z,42.97
2018-02-17T01:55:51.392Z,38.58
2018-02-17T01:58:18.836Z,38.05
2018-02-17T02:00:46.284Z,41.63
2018-02-17T02:03:13.732Z,33.47
2018-02-17T02:05:41.192Z,37.30
2018-02-17T02:08:09.410Z,30.40
2018-02-17T02:10:36.860Z,32.50
2018-02-17T02:13:04.309Z,28.85
2018-02-17T02:15:31.752Z,30.88
2018-02-17T02:17:59.196Z,29.63
2018-02-17T02:20:26.660Z,34.03
2018-02-17T02:22:54.108Z,34.00
2018-02-17T02:25:21.552Z,33.60
2018-02-17T02:27:49.002Z,31.92
2018-02-17T02:30:16.453Z,34.95
2018-02-17T02:32:43.917Z,33.03
2018-02-17T02:35:11.380Z,32.20
2018-02-17T02:37:39.583Z,31.83
2018-02-17T02:40:07.805Z,32.58
2018-02-17T02:42:35.260Z,29.73
2018-02-17T02:45:03.472Z,28.85
2018-02-17T02:47:31.680Z,28.92
2018-02-17T02:49:59.110Z,30.00
2018-02-17T02:52:26.567Z,28.10
2018-02-17T02:54:54.009Z,29.58
2018-02-17T02:57:22.226Z,26.73
2018-02-17T02:59:49.663Z,25.70
2018-02-17T03:02:17.105Z,26.83
2018-02-17T03:04:44.547Z,26.65
2018-02-17T03:07:12.772Z,27.65
2018-02-17T03:09:40.216Z,27.65
2018-02-17T03:12:08.436Z,27.67
2018-02-17T03:14:35.883Z,27.15
2018-02-17T03:17:03.322Z,26.20
2018-02-17T03:19:30.758Z,26.00
2018-02-17T03:21:58.979Z,26.55
2018-02-17T03:24:26.426Z,28.08
2018-02-17T03:26:54.643Z,27.27
2018-02-17T03:29:22.866Z,29.37
2018-02-17T03:31:50.320Z,29.20
2018-02-17T03:34:18.521Z,28.55
2018-02-17T03:36:46.727Z,29.90
2018-02-17T03:39:14.178Z,28.73
2018-02-17T03:41:41.622Z,25.52
2018-02-17T03:44:09.055Z,27.40
2018-02-17T03:46:37.278Z,27.20
2018-02-17T03:49:04.724Z,25.33
2018-02-17T03:51:32.151Z,25.63
2018-02-17T03:53:59.627Z,26.35
2018-02-17T03:56:27.060Z,26.90
2018-02-17T03:58:54.506Z,27.55
2018-02-17T04:01:21.948Z,26.87
2018-02-17T04:03:49.392Z,28.27
2018-02-17T04:06:16.863Z,29.87
2018-02-17T04:08:44.310Z,30.73
2018-02-17T04:11:11.751Z,29.63
2018-02-17T04:13:39.976Z,31.52
2018-02-17T04:16:07.402Z,28.30
2018-02-17T04:18:34.852Z,27.17
2018-02-17T04:21:02.283Z,27.13
2018-02-17T04:23:30.499Z,29.85
2018-02-17T04:25:58.699Z,28.27
2018-02-17T04:28:26.921Z,29.73
2018-02-17T04:30:54.351Z,28.10
2018-02-17T04:33:21.787Z,28.10
2018-02-17T04:35:49.224Z,26.75
2018-02-17T04:38:17.440Z,29.23
2018-02-17T04:40:48.475Z,29.60
2018-02-17T04:46:33.378Z,31.87
2018-02-17T04:49:19.583Z,30.48
2018-02-17T04:51:51.944Z,28.90
2018-02-17T04:54:25.839Z,27.55
2018-02-17T04:56:58.091Z,30.25
2018-02-17T04:59:29.503Z,30.12
2018-02-17T05:02:05.608Z,32.05
2018-02-17T05:04:34.975Z,27.80
2018-02-17T05:07:03.187Z,25.05
2018-02-17T05:09:30.640Z,26.95
2018-02-17T05:11:58.844Z,30.33
2018-02-17T05:14:28.015Z,26.07
2018-02-17T05:16:55.451Z,25.30
2018-02-17T05:19:28.592Z,25.60
2018-02-17T05:22:00.490Z,25.70
2018-02-17T05:24:43.756Z,27.02
2018-02-17T05:30:17.966Z,26.60
2018-02-17T05:32:46.806Z,25.57
2018-02-17T05:35:29.932Z,27.15
2018-02-17T05:37:57.362Z,27.00
2018-02-17T05:40:29.791Z,27.10
2018-02-17T05:42:57.218Z,28.23
2018-02-17T05:45:24.658Z,29.83
2018-02-17T05:47:56.106Z,27.60
2018-02-17T05:50:24.974Z,29.02
2018-02-17T05:52:52.422Z,29.17
2018-02-17T05:55:19.855Z,28.98
2018-02-17T05:57:47.310Z,30.15
2018-02-17T06:00:15.503Z,28.75
2018-02-17T06:02:43.733Z,28.50
2018-02-17T06:05:11.184Z,27.37
2018-02-17T06:07:39.431Z,26.50
2018-02-17T06:10:06.832Z,27.30
2018-02-17T06:12:34.270Z,28.38
2018-02-17T06:15:01.703Z,26.83
2018-02-17T06:17:29.147Z,27.85
2018-02-17T06:19:56.588Z,27.25
2018-02-17T06:22:24.804Z,28.52
2018-02-17T06:24:52.238Z,29.70
2018-02-17T06:27:19.679Z,27.85
2018-02-17T06:29:47.143Z,29.92
2018-02-17T06:32:14.595Z,29.63
2018-02-17T06:34:42.802Z,31.42
2018-02-17T06:37:11.020Z,30.45
2018-02-17T06:39:38.464Z,29.90
2018-02-17T06:42:05.906Z,29.23
2018-02-17T06:44:33.360Z,28.60
2018-02-17T06:47:00.831Z,27.60
2018-02-17T06:49:29.035Z,28.25
2018-02-17T06:51:56.492Z,27.02
2018-02-17T06:54:24.262Z,26.37
2018-02-17T06:56:51.695Z,25.15
2018-02-17T06:59:19.134Z,26.70
2018-02-17T07:01:46.574Z,25.92
2018-02-17T07:04:14.032Z,25.42
2018-02-17T07:06:41.479Z,26.10
2018-02-17T07:09:09.695Z,25.60
2018-02-17T07:11:37.897Z,24.70
2018-02-17T07:14:06.111Z,23.17
2018-02-17T07:16:33.537Z,22.52
2018-02-17T07:19:00.982Z,22.40
2018-02-17T07:21:28.425Z,23.80
2018-02-17T07:23:56.178Z,23.62
2018-02-17T07:26:23.607Z,23.50
2018-02-17T07:28:51.991Z,23.62
2018-02-17T07:31:19.423Z,25.92
2018-02-17T07:33:46.876Z,25.48
2018-02-17T07:36:14.307Z,24.10
2018-02-17T07:38:41.751Z,24.05
2018-02-17T07:41:09.187Z,24.35
2018-02-17T07:43:36.629Z,25.93
2018-02-17T07:46:04.071Z,24.95
2018-02-17T07:48:31.515Z,27.27
2018-02-17T07:50:58.964Z,26.55
2018-02-17T07:53:26.414Z,27.00
2018-02-17T07:55:53.847Z,27.33
2018-02-17T07:58:21.287Z,28.95
2018-02-17T08:00:48.730Z,28.40
2018-02-17T08:03:16.206Z,29.27
2018-02-17T08:05:43.647Z,28.12
2018-02-17T08:08:11.090Z,30.62
2018-02-17T08:10:39.335Z,29.50
2018-02-17T08:13:06.760Z,28.50
2018-02-17T08:15:34.967Z,29.35
2018-02-17T08:18:02.407Z,29.42
2018-02-17T08:20:29.847Z,29.65
2018-02-17T08:22:57.286Z,28.23
2018-02-17T08:25:24.726Z,28.90
2018-02-17T08:27:52.150Z,27.90
2018-02-17T08:30:20.200Z,31.33
2018-02-17T08:32:47.680Z,26.35
2018-02-17T08:35:15.115Z,28.80
2018-02-17T08:37:43.319Z,32.17
2018-02-17T08:40:11.571Z,32.70
2018-02-17T08:42:39.013Z,32.88
2018-02-17T08:45:06.442Z,33.17
2018-02-17T08:47:33.895Z,32.13
2018-02-17T08:50:01.331Z,32.92
2018-02-17T08:52:29.546Z,32.70
2018-02-17T08:54:57.752Z,33.17
2018-02-17T08:57:25.972Z,34.00
2018-02-17T08:59:53.412Z,36.10
2018-02-17T09:02:20.875Z,35.10
2018-02-17T09:04:48.310Z,33.05
2018-02-17T09:07:15.763Z,36.03
2018-02-17T09:09:43.965Z,34.15
2018-02-17T09:12:12.192Z,34.72
2018-02-17T09:14:39.619Z,35.17
2018-02-17T09:17:07.068Z,33.73
2018-02-17T09:19:34.498Z,32.30
2018-02-17T09:22:02.706Z,32.33
2018-02-17T09:24:30.920Z,33.23
2018-02-17T09:26:58.375Z,32.58
2018-02-17T09:29:26.588Z,32.38
2018-02-17T09:31:54.044Z,30.42
2018-02-17T09:34:21.496Z,33.22
2018-02-17T09:36:48.939Z,31.23
2018-02-17T09:39:16.388Z,30.90
2018-02-17T09:41:44.606Z,30.33
2018-02-17T09:44:12.039Z,29.70
2018-02-17T09:46:39.500Z,30.70
2018-02-17T09:49:06.948Z,28.55
2018-02-17T09:51:35.155Z,31.33
2018-02-17T09:54:02.603Z,29.08
2018-02-17T09:56:30.824Z,28.38
2018-02-17T09:58:58.270Z,30.00
2018-02-17T10:01:25.730Z,28.80
2018-02-17T10:03:53.178Z,31.35
2018-02-17T10:06:21.385Z,29.98
2018-02-17T10:08:48.876Z,30.12
2018-02-17T10:11:16.323Z,28.83
2018-02-17T10:13:44.515Z,29.58
2018-02-17T10:16:11.968Z,27.42
2018-02-17T10:18:39.408Z,28.30
2018-02-17T10:21:06.859Z,26.40
2018-02-17T10:23:35.071Z,25.90
2018-02-17T10:26:02.532Z,25.92
2018-02-17T10:28:30.734Z,27.35
2018-02-17T10:30:58.968Z,26.75
2018-02-17T10:33:26.418Z,25.50
2018-02-17T10:35:54.618Z,26.37
2018-02-17T10:38:22.819Z,26.30
2018-02-17T10:40:50.251Z,27.27
2018-02-17T10:43:17.691Z,26.55
2018-02-17T10:45:45.123Z,26.40
2018-02-17T10:48:12.579Z,26.83
2018-02-17T10:50:40.811Z,28.27
2018-02-17T10:53:08.219Z,25.77
2018-02-17T10:55:37.579Z,24.25
2018-02-17T10:58:05.027Z,25.05
2018-02-17T11:00:32.464Z,24.83
2018-02-17T11:02:59.911Z,24.15
2018-02-17T11:05:27.360Z,24.00
2018-02-17T11:07:55.576Z,24.48
2018-02-17T11:10:23.007Z,24.75
2018-02-17T11:12:50.456Z,23.73
2018-02-17T11:15:17.892Z,23.90
2018-02-17T11:17:46.094Z,23.38
2018-02-17T11:20:14.300Z,26.27
2018-02-17T11:22:42.515Z,25.80
2018-02-17T11:25:09.960Z,24.45
2018-02-17T11:27:37.399Z,22.65
2018-02-17T11:30:04.856Z,23.17
2018-02-17T11:32:32.287Z,24.02
2018-02-17T11:34:59.720Z,24.55
2018-02-17T11:37:27.164Z,25.48
2018-02-17T11:39:54.604Z,23.20
2018-02-17T11:42:22.060Z,22.52
2018-02-17T11:44:49.495Z,24.40
2018-02-17T11:47:16.994Z,23.05
2018-02-17T11:49:45.231Z,21.35
2018-02-17T11:52:12.671Z,21.05
2018-02-17T11:54:40.867Z,22.30
2018-02-17T11:57:09.082Z,21.65
2018-02-17T11:59:37.292Z,20.75
2018-02-17T12:02:04.731Z,17.42
2018-02-17T12:04:32.163Z,17.55
2018-02-17T12:06:59.604Z,15.63
2018-02-17T12:09:27.043Z,16.37
2018-02-17T12:11:54.476Z,14.63
2018-02-17T12:14:21.916Z,13.60
2018-02-17T12:16:49.387Z,13.32
2018-02-17T12:19:17.641Z,13.65
2018-02-17T12:21:45.075Z,12.88
2018-02-17T12:24:13.355Z,12.55
2018-02-17T12:26:40.808Z,13.73
2018-02-17T12:29:08.224Z,14.27
2018-02-17T12:31:35.676Z,12.65
2018-02-17T12:34:03.124Z,14.25
2018-02-17T12:36:30.574Z,13.20
2018-02-17T12:38:58.784Z,13.52
2018-02-17T12:41:26.233Z,13.82
2018-02-17T12:43:53.691Z,13.60
2018-02-17T12:46:21.119Z,14.40
2018-02-17T12:48:49.336Z,13.63
2018-02-17T12:51:16.780Z,12.55
2018-02-17T12:53:44.215Z,14.15
2018-02-17T12:56:11.651Z,14.10
2018-02-17T12:58:39.108Z,16.37
2018-02-17T13:01:06.539Z,14.90
2018-02-17T13:03:34.752Z,15.38
2018-02-17T13:06:02.195Z,16.83
2018-02-17T13:08:30.402Z,16.00
2018-02-17T13:10:57.835Z,15.23
2018-02-17T13:13:25.283Z,15.60
2018-02-17T13:15:52.720Z,14.50
2018-02-17T13:18:20.169Z,15.02
2018-02-17T13:20:48.388Z,15.23
2018-02-17T13:23:15.837Z,15.40
2018-02-17T13:25:44.045Z,15.23
2018-02-17T13:28:24.166Z,14.90
2018-02-17T13:30:51.622Z,16.20
2018-02-17T13:33:19.064Z,15.20
2018-02-17T13:35:46.507Z,16.83
2018-02-17T13:38:13.946Z,17.05
2018-02-17T13:40:41.382Z,19.40
2018-02-17T13:43:08.825Z,20.52
2018-02-17T13:45:36.259Z,18.73
2018-02-17T13:48:03.731Z,19.50
2018-02-17T13:50:31.164Z,20.25
2018-02-17T13:52:58.594Z,20.00
2018-02-17T13:55:26.031Z,20.30
2018-02-17T13:57:53.480Z,16.37
2018-02-17T14:00:20.903Z,15.17
2018-02-17T14:02:48.379Z,20.85
2018-02-17T14:05:16.558Z,20.30
2018-02-17T14:07:44.761Z,20.30
2018-02-17T14:10:12.965Z,21.00
2018-02-17T14:12:40.410Z,20.05
2018-02-17T14:15:07.847Z,21.60
2018-02-17T14:17:35.290Z,21.92
2018-02-17T14:20:02.723Z,20.10
2018-02-17T14:22:30.167Z,19.90
2018-02-17T14:24:57.615Z,17.85
2018-02-17T14:27:25.047Z,18.95
2018-02-17T14:29:53.254Z,17.92
2018-02-17T14:32:21.468Z,16.98
2018-02-17T14:34:48.903Z,16.50
2018-02-17T14:37:16.343Z,15.73
2018-02-17T14:39:43.804Z,14.90
2018-02-17T14:42:12.013Z,16.20
2018-02-17T14:44:40.219Z,14.80
2018-02-17T14:47:07.695Z,15.40
2018-02-17T14:49:35.903Z,14.32
2018-02-17T14:52:03.338Z,16.12
2018-02-17T14:54:30.787Z,15.27
2018-02-17T14:56:58.218Z,15.00
2018-02-17T14:59:25.663Z,15.53
2018-02-17T15:01:53.107Z,16.10
2018-02-17T15:04:20.547Z,15.45
2018-02-17T15:06:47.992Z,15.18
2018-02-17T15:09:15.440Z,15.40
2018-02-17T15:11:43.649Z,14.00
2018-02-17T15:14:11.111Z,14.30
2018-02-17T15:16:38.559Z,13.82
2018-02-17T15:19:05.999Z,12.48
2018-02-17T15:21:34.199Z,13.27
2018-02-17T15:24:01.649Z,12.55
2018-02-17T15:26:29.083Z,13.35
2018-02-17T15:28:56.527Z,12.73
2018-02-17T15:31:24.727Z,12.30
2018-02-17T15:33:52.938Z,11.60
2018-02-17T15:36:20.363Z,11.90
2018-02-17T15:38:47.816Z,11.70
2018-02-17T15:41:16.016Z,11.48
2018-02-17T15:43:43.454Z,10.77
2018-02-17T15:46:10.899Z,10.68
2018-02-17T15:48:38.339Z,10.68
2018-02-17T15:51:05.768Z,9.50
2018-02-17T15:53:33.222Z,10.32
2018-02-17T15:56:01.450Z,9.85
2018-02-17T15:58:28.896Z,9.00
2018-02-17T16:00:56.324Z,9.95
2018-02-17T16:03:24.522Z,8.63
2018-02-17T16:05:51.959Z,14.30
2018-02-17T16:08:19.402Z,10.70
2018-02-17T16:10:46.871Z,9.15
2018-02-17T16:13:14.339Z,9.82
2018-02-17T16:15:42.539Z,11.70
2018-02-17T16:18:09.976Z,10.75
2018-02-17T16:20:37.459Z,10.82
2018-02-17T16:23:04.905Z,10.05
2018-02-17T16:25:32.356Z,10.57
2018-02-17T16:28:00.569Z,10.40
2018-02-17T16:30:28.783Z,10.82
2018-02-17T16:32:56.224Z,11.10
2018-02-17T16:35:23.666Z,11.90
2018-02-17T16:37:51.119Z,12.07
2018-02-17T16:40:18.559Z,12.45
2018-02-17T16:42:46.003Z,12.70
2018-02-17T16:45:13.443Z,14.65
2018-02-17T16:47:41.652Z,13.90
2018-02-17T16:50:09.860Z,15.00
2018-02-17T16:52:37.304Z,15.70
2018-02-17T16:55:04.743Z,14.60
2018-02-17T16:57:32.183Z,14.73
2018-02-17T17:00:00.399Z,14.63
2018-02-17T17:02:27.835Z,13.60
2018-02-17T17:04:55.275Z,13.90
2018-02-17T17:07:22.714Z,13.55
2018-02-17T17:09:50.185Z,13.23
2018-02-17T17:12:17.587Z,13.32
2018-02-17T17:14:45.035Z,12.85
2018-02-17T17:17:12.481Z,13.43
2018-02-17T17:19:40.688Z,14.15
2018-02-17T17:22:08.891Z,13.77
2018-02-17T17:24:36.331Z,13.30
2018-02-17T17:27:03.772Z,13.60
2018-02-17T17:29:31.216Z,14.40
2018-02-17T17:31:58.660Z,13.55
2018-02-17T17:34:26.106Z,13.50
2018-02-17T17:36:53.542Z,13.55
2018-02-17T17:39:21.005Z,12.80
2018-02-17T17:41:48.430Z,12.93
2018-02-17T17:44:15.885Z,13.43
2018-02-17T17:46:43.330Z,13.65
2018-02-17T17:49:11.544Z,13.80
2018-02-17T17:51:38.992Z,14.43
2018-02-17T17:54:06.443Z,13.90
2018-02-17T17:56:33.883Z,15.05
2018-02-17T17:59:02.084Z,15.50
2018-02-17T18:01:30.298Z,17.92
2018-02-17T18:03:57.760Z,16.40
2018-02-17T18:06:25.952Z,15.80
2018-02-17T18:08:53.386Z,12.00
2018-02-17T18:11:20.820Z,9.77
2018-02-17T18:13:49.032Z,13.20
2018-02-17T18:16:16.463Z,10.90
2018-02-17T19:02:52.791Z,15.50
2018-02-17T19:05:20.231Z,14.70
2018-02-17T19:07:47.674Z,17.50
2018-02-17T19:10:15.123Z,16.80
2018-02-17T19:12:42.592Z,15.27
2018-02-17T19:15:10.024Z,16.40
2018-02-17T19:17:38.240Z,15.80
2018-02-17T19:20:05.679Z,15.23
2018-02-17T19:22:33.119Z,16.02
2018-02-17T19:25:00.563Z,15.60
2018-02-17T19:27:28.759Z,15.40
2018-02-17T19:29:56.986Z,15.35
2018-02-17T19:32:24.436Z,18.23
2018-02-17T19:34:52.648Z,15.68
2018-02-17T19:37:20.857Z,15.27
2018-02-17T19:39:48.291Z,15.83
2018-02-17T19:42:15.718Z,16.52
2018-02-17T19:44:43.165Z,16.92
2018-02-17T19:47:10.607Z,17.83
2018-02-17T19:49:38.045Z,15.88
2018-02-17T19:52:06.238Z,19.30
2018-02-17T19:54:34.452Z,17.30
2018-02-17T19:57:01.895Z,16.65
2018-02-17T19:59:29.327Z,17.00
2018-02-17T20:01:56.791Z,16.48
2018-02-17T20:04:24.994Z,17.65
2018-02-17T20:06:52.456Z,18.60
2018-02-17T20:09:19.901Z,17.42
2018-02-17T20:11:47.339Z,17.55
2018-02-17T20:14:14.771Z,17.50
2018-02-17T20:16:42.220Z,16.65
2018-02-17T20:19:09.652Z,17.67
2018-02-17T20:21:37.113Z,17.80
2018-02-17T20:24:04.548Z,17.25
2018-02-17T20:26:31.987Z,16.83
2018-02-17T20:28:59.428Z,17.20
2018-02-17T20:31:26.866Z,17.70
2018-02-17T20:33:55.076Z,17.55
2018-02-17T20:36:23.279Z,17.95
2018-02-17T20:38:51.483Z,18.30
2018-02-17T20:41:18.923Z,18.23
2018-02-17T20:43:46.681Z,18.25
2018-02-17T20:46:14.122Z,17.37
2018-02-17T20:48:42.373Z,18.10
2018-02-17T20:51:09.784Z,19.17
2018-02-17T20:53:37.223Z,18.35
2018-02-17T20:56:04.662Z,19.10
2018-02-17T20:58:32.875Z,19.50
2018-02-17T21:01:00.321Z,18.62
2018-02-17T21:03:27.754Z,19.90
2018-02-17T21:05:55.201Z,18.60
2018-02-17T21:08:22.631Z,18.30
2018-02-17T21:10:50.083Z,20.25
2018-02-17T21:13:18.316Z,20.60
2018-02-17T21:15:45.771Z,22.90
2018-02-17T21:18:13.215Z,21.12
2018-02-17T21:20:41.436Z,19.98
2018-02-17T21:23:09.640Z,26.05
2018-02-17T21:25:37.080Z,21.25
2018-02-17T21:28:04.727Z,27.15
2018-02-17T21:30:32.167Z,22.80
2018-02-17T21:32:59.603Z,25.27
2018-02-17T21:35:27.043Z,20.33
2018-02-17T21:37:55.243Z,27.60
2018-02-17T21:40:23.466Z,21.65
2018-02-17T21:42:50.890Z,19.17
2018-02-17T21:45:18.336Z,19.20
2018-02-17T21:47:45.775Z,19.50
2018-02-17T21:50:13.995Z,19.20
2018-02-17T21:52:41.427Z,20.65
2018-02-17T21:55:08.874Z,20.30
2018-02-17T21:57:36.321Z,21.08
2018-02-17T22:00:04.520Z,20.87
2018-02-17T22:02:32.726Z,22.33
2018-02-17T22:05:00.167Z,23.25
2018-02-17T22:07:27.607Z,18.98
2018-02-17T22:09:55.058Z,21.45
2018-02-17T22:12:23.272Z,21.60
2018-02-17T22:14:50.707Z,22.05
2018-02-17T22:17:18.177Z,21.77
2018-02-17T22:19:45.612Z,20.23
2018-02-17T22:22:13.064Z,21.75
2018-02-17T22:24:40.495Z,22.60
2018-02-17T22:27:07.931Z,22.77
2018-02-17T22:29:36.127Z,22.30
2018-02-17T22:32:04.331Z,24.50
2018-02-17T22:34:32.527Z,18.40
2018-02-17T22:37:00.727Z,17.50
2018-02-17T22:39:28.932Z,16.50
2018-02-17T22:41:57.144Z,23.52
2018-02-17T22:44:24.575Z,22.85
2018-02-17T23:18:45.196Z,23.55
2018-02-17T23:21:12.643Z,24.95
2018-02-17T23:23:40.086Z,25.95
2018-02-17T23:26:07.535Z,26.50
2018-02-17T23:28:34.977Z,25.95
2018-02-17T23:31:03.190Z,24.60
2018-02-17T23:33:30.615Z,26.08
2018-02-17T23:35:58.051Z,26.80
2018-02-17T23:38:25.494Z,24.02
2018-02-17T23:40:52.949Z,25.75
2018-02-17T23:43:20.391Z,26.95
2018-02-17T23:45:47.845Z,26.42
2018-02-17T23:48:15.274Z,28.23
2018-02-17T23:50:42.707Z,25.27
2018-02-17T23:53:10.964Z,26.98
2018-02-17T23:55:38.394Z,26.60
2018-02-17T23:58:06.605Z,26.00
